Accueil
METAR-TAF:

METAR-TAF

Aéroports :

Farnborough, Angleterre

latitude: 51-17N, longitude: 000-46W, altitude: 65 m

Observation

Le bulletin a été fait il y a 17 minutes, à 02:50 UTC
Vent 9 kt de sud
Température 15°C
Humidité 94%
Pression 997 hPa
Visibilité 10 km ou plus

METAR: EGLF 060250Z AUTO 19009KT 9999 FEW021/// SCT032/// 15/14 Q0997

Heure: 04:07 (03:07 UTC)

Prévision

Le bulletin a été fait il y a 7 heures et 10 minutes, à 19:57 UTC
Prévision valable du 05 à 21 UTC au 06 à 06 UTC
Vent 10 kt de sud/sud-ouest
Visibilité 10 km ou plus
Nuages épars à une hauteur de 2500 ft
Temporairement
du 05 à 21 UTC au 05 à 23 UTC
Nuages fragmentés à une hauteur de 1200 ft
Probabilité 30% :
Temporairement
du 05 à 21 UTC au 05 à 23 UTC
Visibilité: 6000 m
Nuages fragmentés à une hauteur de 800 ft
averses de pluie

TAF: EGLF 051957Z 0521/0606 20010KT 9999 SCT025 TEMPO 0521/0523 BKN012 PROB30 TEMPO 0521/0523 6000 SHRA BKN008

Observations et prévisions météorologiques de plus de 4000 aéroports (messages METAR et TAF).

Les stations disponibles sont représentées par des disques jaunes et rouges sur la carte.

Passer la souris dessus pour voir le nom de la station.

Cliquer dessus pour voir les observations et prévisions météorologiques.

Pour changer de carte: cliquez sur les boutons verts avec une croix noire pour zoomer, sur le bouton vert avec un tiret pour effectuer un zoom arrière, ou sur les flèches vertes pour les cartes adjacentes.


METAR-TAF: